Time;durP1;ratioP1;P1;durP2;ratioP2;P2;SDS_P1;SDS_P2;PMS_P1;PMS_P2;Temp;Humidity;BMP_temperature;BMP_pressure;BME280_temperature;BME280_humidity;BME280_pressure;Samples;Min_cycle;Max_cycle;Signal;HPM_P1;HPM_P2
2024/01/05 00:02:59;;;;;;;;;;;;;;;6.72;97.12;99418.28;4991440;28;19924;-71
2024/01/05 00:06:07;;;;;;;;;;;;;;;6.66;98.38;99417.78;4981664;28;20284;-71
2024/01/05 00:09:11;;;;;;;;;;;;;;;6.60;98.29;99416.34;4981048;28;20291;-71
2024/01/05 00:12:14;;;;;;;;;;;;;;;6.67;98.14;99404.72;4993227;28;20040;-71
2024/01/05 00:15:18;;;;;;;;;;;;;;;6.75;97.90;99401.69;4991390;28;19974;-71
2024/01/05 00:18:22;;;;;;;;;;;;;;;6.71;97.62;99392.41;4991672;28;19928;-71
2024/01/05 00:21:26;;;;;;;;;;;;;;;6.69;97.76;99386.44;4992087;28;19929;-71
2024/01/05 00:24:30;;;;;;;;;;;;;;;6.64;98.35;99383.28;4992276;28;20063;-71
2024/01/05 00:27:32;;;;;;;;;;;;;;;6.62;98.08;99372.13;4992419;28;19980;-71
2024/01/05 00:30:35;;;;;;;;;;;;;;;6.54;98.56;99362.16;4993081;28;19925;-70
2024/01/05 00:33:39;;;;;;;;;;;;;;;6.58;98.52;99355.88;4990758;28;19980;-71
2024/01/05 00:36:42;;;;;;;;;;;;;;;6.60;97.87;99351.41;4990964;28;19968;-71
2024/01/05 00:39:46;;;;;;;;;;;;;;;6.62;98.25;99351.34;4991429;28;19929;-71
2024/01/05 00:42:49;;;;;;;;;;;;;;;6.66;97.82;99356.28;4991963;28;19972;-70
2024/01/05 00:45:52;;;;;;;;;;;;;;;6.60;98.21;99343.63;4992516;28;20412;-70
2024/01/05 00:48:55;;;;;;;;;;;;;;;6.64;97.81;99328.72;4992653;28;20296;-71
2024/01/05 00:51:59;;;;;;;;;;;;;;;6.60;98.15;99330.63;4990767;28;19940;-70
2024/01/05 00:55:01;;;;;;;;;;;;;;;6.69;97.71;99322.31;4990791;28;19925;-70
2024/01/05 00:58:04;;;;;;;;;;;;;;;6.60;98.54;99316.81;4977267;28;19924;-70
2024/01/05 01:01:08;;;;;;;;;;;;;;;6.56;98.18;99308.34;4977431;28;19929;-70
2024/01/05 01:04:12;;;;;;;;;;;;;;;6.49;98.92;99312.22;4977549;28;19925;-70
2024/01/05 01:07:14;;;;;;;;;;;;;;;6.53;98.89;99316.31;4977540;28;19945;-70
2024/01/05 01:10:17;;;;;;;;;;;;;;;6.56;98.62;99315.31;4977703;28;19925;-70
2024/01/05 01:13:21;;;;;;;;;;;;;;;6.52;98.34;99306.84;4977666;28;19956;-70
2024/01/05 01:16:24;;;;;;;;;;;;;;;6.44;98.49;99314.22;4977845;28;19924;-71
2024/01/05 01:19:27;;;;;;;;;;;;;;;6.25;99.27;99312.63;4977134;28;19954;-70
2024/01/05 01:22:29;;;;;;;;;;;;;;;6.44;98.46;99309.84;4977524;28;19968;-70
2024/01/05 01:25:32;;;;;;;;;;;;;;;6.46;97.80;99307.19;4976585;28;20408;-70
2024/01/05 01:28:35;;;;;;;;;;;;;;;6.43;97.68;99294.38;4977502;28;19925;-70
2024/01/05 01:31:38;;;;;;;;;;;;;;;6.40;98.00;99286.75;4976758;28;19945;-70
2024/01/05 01:34:41;;;;;;;;;;;;;;;6.18;98.98;99300.88;4976554;28;19972;-71
2024/01/05 01:37:43;;;;;;;;;;;;;;;6.29;97.92;99301.16;4975700;28;19924;-71
2024/01/05 01:40:47;;;;;;;;;;;;;;;6.28;98.23;99296.88;4975808;28;20455;-71
2024/01/05 01:43:50;;;;;;;;;;;;;;;6.36;98.30;99288.69;4975971;28;19924;-71
2024/01/05 01:46:53;;;;;;;;;;;;;;;6.33;98.21;99293.22;4976588;28;19925;-71
2024/01/05 01:49:58;;;;;;;;;;;;;;;6.36;98.06;99282.66;4989520;28;19924;-71
2024/01/05 01:53:01;;;;;;;;;;;;;;;6.39;98.09;99285.09;4995852;28;20289;-71
2024/01/05 01:56:10;;;;;;;;;;;;;;;6.37;97.94;99290.34;4995251;28;20387;-71
2024/01/05 01:59:13;;;;;;;;;;;;;;;6.14;98.64;99278.63;4995573;28;19928;-70
2024/01/05 02:02:16;;;;;;;;;;;;;;;6.10;99.29;99290.09;4995335;28;19929;-70
2024/01/05 02:05:19;;;;;;;;;;;;;;;5.90;100.00;99288.50;4995655;28;19925;-70
2024/01/05 02:08:22;;;;;;;;;;;;;;;5.96;100.00;99279.59;4995692;28;19929;-70
2024/01/05 02:11:25;;;;;;;;;;;;;;;5.93;100.00;99278.00;4995331;28;20285;-70
2024/01/05 02:14:28;;;;;;;;;;;;;;;5.65;100.00;99277.75;4996175;28;19925;-70
2024/01/05 02:17:51;;;;;;;;;;;;;;;5.77;100.00;99261.53;4987089;28;19924;-70
2024/01/05 02:20:55;;;;;;;;;;;;;;;5.77;99.81;99267.56;4996046;28;20289;-70
2024/01/05 02:23:58;;;;;;;;;;;;;;;5.82;99.00;99260.38;4995247;28;19972;-70
2024/01/05 02:27:01;;;;;;;;;;;;;;;5.94;98.37;99250.31;4995261;28;19925;-70
2024/01/05 02:30:04;;;;;;;;;;;;;;;5.95;98.38;99246.78;4995529;28;20285;-70
2024/01/05 02:33:07;;;;;;;;;;;;;;;5.99;97.89;99240.50;4995916;28;20423;-70
2024/01/05 02:36:10;;;;;;;;;;;;;;;5.90;97.77;99225.41;4995495;28;20004;-70
2024/01/05 02:39:13;;;;;;;;;;;;;;;5.73;98.58;99231.50;4995446;28;19971;-70
2024/01/05 02:42:16;;;;;;;;;;;;;;;5.67;98.65;99230.06;4995532;28;19929;-70
2024/01/05 02:45:20;;;;;;;;;;;;;;;5.68;98.94;99226.56;4995723;28;19972;-70
2024/01/05 02:48:23;;;;;;;;;;;;;;;5.55;99.28;99225.53;4995509;28;20050;-70
2024/01/05 02:51:26;;;;;;;;;;;;;;;5.55;99.51;99213.41;4995144;28;19925;-70
2024/01/05 02:54:29;;;;;;;;;;;;;;;5.64;99.17;99214.66;4995444;28;20012;-70
2024/01/05 02:57:31;;;;;;;;;;;;;;;5.56;98.92;99214.25;4995310;28;20083;-70
2024/01/05 03:00:35;;;;;;;;;;;;;;;5.65;98.17;99211.19;4995453;28;19936;-70
2024/01/05 03:03:38;;;;;;;;;;;;;;;5.70;98.05;99211.75;4995318;28;19991;-70
2024/01/05 03:06:41;;;;;;;;;;;;;;;5.50;98.68;99210.22;4995185;28;19998;-70
2024/01/05 03:09:43;;;;;;;;;;;;;;;5.54;99.16;99203.94;4995137;28;19964;-70
2024/01/05 03:12:48;;;;;;;;;;;;;;;5.35;99.57;99203.22;4995167;28;19925;-70
2024/01/05 03:15:52;;;;;;;;;;;;;;;5.21;100.00;99209.13;4995322;28;20384;-70
2024/01/05 03:18:55;;;;;;;;;;;;;;;5.29;100.00;99195.78;4995364;28;19988;-70
2024/01/05 03:21:57;;;;;;;;;;;;;;;5.24;100.00;99190.84;4994708;28;20029;-70
2024/01/05 03:25:00;;;;;;;;;;;;;;;5.33;100.00;99182.59;4994016;28;19928;-70
2024/01/05 03:28:04;;;;;;;;;;;;;;;5.46;100.00;99169.81;4994861;28;20009;-69
2024/01/05 03:31:12;;;;;;;;;;;;;;;5.41;100.00;99173.56;4994804;28;19924;-70
2024/01/05 03:34:15;;;;;;;;;;;;;;;5.58;100.00;99168.31;4994751;28;19924;-70
2024/01/05 03:37:18;;;;;;;;;;;;;;;5.64;100.00;99162.81;4994701;28;19975;-70
2024/01/05 03:40:21;;;;;;;;;;;;;;;5.80;99.25;99163.66;4994678;28;19968;-70
2024/01/05 03:43:24;;;;;;;;;;;;;;;5.78;99.60;99175.88;4993973;28;20303;-70
2024/01/05 03:46:27;;;;;;;;;;;;;;;5.66;100.00;99166.16;4994525;28;19971;-70
2024/01/05 03:49:30;;;;;;;;;;;;;;;5.79;100.00;99167.16;4994507;28;19960;-70
2024/01/05 03:52:33;;;;;;;;;;;;;;;5.90;100.00;99165.75;4982387;28;19981;-70
2024/01/05 03:55:36;;;;;;;;;;;;;;;5.86;100.00;99161.66;4994371;28;19925;-70
2024/01/05 03:58:39;;;;;;;;;;;;;;;5.75;100.00;99154.47;4993832;28;19924;-70
2024/01/05 04:01:45;;;;;;;;;;;;;;;5.88;100.00;99150.28;4993952;28;19928;-70
2024/01/05 04:04:48;;;;;;;;;;;;;;;5.91;100.00;99154.47;4993924;28;19929;-70
2024/01/05 04:07:51;;;;;;;;;;;;;;;6.00;100.00;99156.59;4994270;28;19940;-70
2024/01/05 04:10:54;;;;;;;;;;;;;;;6.07;99.71;99150.13;4994114;28;20384;-70
2024/01/05 04:13:57;;;;;;;;;;;;;;;6.08;99.57;99156.97;4994107;28;20392;-70
2024/01/05 04:17:00;;;;;;;;;;;;;;;6.02;99.72;99154.72;4994039;28;19945;-70
2024/01/05 04:20:03;;;;;;;;;;;;;;;6.05;99.60;99150.19;4993919;28;19928;-70
2024/01/05 04:23:06;;;;;;;;;;;;;;;6.04;99.95;99151.13;4993990;28;20328;-70
2024/01/05 04:26:09;;;;;;;;;;;;;;;6.10;99.59;99152.56;4993906;28;19997;-71
2024/01/05 04:29:12;;;;;;;;;;;;;;;6.19;99.06;99139.06;4993944;28;19925;-70
2024/01/05 04:32:15;;;;;;;;;;;;;;;6.18;98.61;99139.13;4993292;28;19976;-70
2024/01/05 04:35:18;;;;;;;;;;;;;;;6.19;98.47;99128.69;4994154;28;20293;-70
2024/01/05 04:38:21;;;;;;;;;;;;;;;6.06;98.79;99122.47;4993679;28;20013;-70
2024/01/05 04:41:24;;;;;;;;;;;;;;;6.01;98.92;99112.38;4993066;28;19929;-71
2024/01/05 04:44:28;;;;;;;;;;;;;;;6.01;99.11;99103.75;4993802;28;19929;-70
2024/01/05 04:47:31;;;;;;;;;;;;;;;5.96;98.96;99096.22;4993100;28;19924;-70
2024/01/05 04:50:34;;;;;;;;;;;;;;;5.95;98.89;99093.72;4993761;28;19971;-70
2024/01/05 04:53:37;;;;;;;;;;;;;;;5.68;100.00;99094.31;4993798;28;20452;-70
2024/01/05 04:56:40;;;;;;;;;;;;;;;5.71;100.00;99083.78;4993416;28;19924;-70
2024/01/05 04:59:43;;;;;;;;;;;;;;;5.70;100.00;99086.44;4993603;28;19924;-70
2024/01/05 05:02:46;;;;;;;;;;;;;;;5.77;99.80;99096.38;4993476;28;19975;-75
2024/01/05 05:05:48;;;;;;;;;;;;;;;5.59;100.00;99100.84;4993007;28;20539;-71
2024/01/05 05:08:51;;;;;;;;;;;;;;;5.69;100.00;99083.00;4993586;28;19925;-70
2024/01/05 05:11:54;;;;;;;;;;;;;;;5.77;100.00;99091.19;4993516;28;19924;-70
2024/01/05 05:14:57;;;;;;;;;;;;;;;5.71;99.12;99095.88;4993590;28;19924;-70
2024/01/05 05:18:00;;;;;;;;;;;;;;;5.75;99.37;99100.81;4993537;28;19927;-71
2024/01/05 05:21:03;;;;;;;;;;;;;;;5.70;100.00;99105.41;4993341;28;19976;-70
2024/01/05 05:24:07;;;;;;;;;;;;;;;5.75;100.00;99107.78;4993443;28;19929;-70
2024/01/05 05:27:10;;;;;;;;;;;;;;;5.85;99.91;99106.34;4993380;28;19925;-70
2024/01/05 05:30:13;;;;;;;;;;;;;;;5.97;99.65;99100.50;4994431;28;19931;-70
2024/01/05 05:33:17;;;;;;;;;;;;;;;6.03;99.36;99100.16;4991900;28;19972;-70
2024/01/05 05:36:19;;;;;;;;;;;;;;;6.01;99.38;99093.38;4993053;28;20068;-70
2024/01/05 05:39:24;;;;;;;;;;;;;;;6.04;99.11;99109.63;4993001;28;19945;-70
2024/01/05 05:42:27;;;;;;;;;;;;;;;5.69;100.00;99095.16;4990616;28;19988;-71
2024/01/05 05:45:30;;;;;;;;;;;;;;;5.81;100.00;99108.28;4985342;28;20284;-71
2024/01/05 05:48:33;;;;;;;;;;;;;;;5.75;100.00;99118.16;4985135;28;20366;-71
2024/01/05 05:51:36;;;;;;;;;;;;;;;5.85;100.00;99119.31;4996595;28;19965;-71
2024/01/05 05:54:40;;;;;;;;;;;;;;;5.88;100.00;99115.72;4994713;28;19924;-71
2024/01/05 05:57:42;;;;;;;;;;;;;;;5.88;100.00;99102.75;4996557;28;19925;-71
2024/01/05 06:00:45;;;;;;;;;;;;;;;5.95;100.00;99093.72;4996444;28;19929;-71
2024/01/05 06:03:51;;;;;;;;;;;;;;;5.90;100.00;99103.47;4996322;28;20071;-71
2024/01/05 06:06:54;;;;;;;;;;;;;;;5.93;100.00;99100.75;4996084;28;20384;-71
2024/01/05 06:09:59;;;;;;;;;;;;;;;5.90;100.00;99109.50;4995922;28;19928;-71
2024/01/05 06:17:45;;;;;;;;;;;;;;;5.72;100.00;99103.59;4993916;28;19960;-71
2024/01/05 06:20:48;;;;;;;;;;;;;;;5.86;100.00;99101.97;4995589;28;20349;-71
2024/01/05 06:23:51;;;;;;;;;;;;;;;5.76;100.00;99105.09;4993188;28;19929;-71
2024/01/05 06:26:54;;;;;;;;;;;;;;;5.77;100.00;99106.75;4993024;28;19924;-70
2024/01/05 06:29:57;;;;;;;;;;;;;;;5.64;100.00;99104.91;4994935;28;19929;-71
2024/01/05 06:33:00;;;;;;;;;;;;;;;5.72;100.00;99107.94;4994434;28;20388;-70
2024/01/05 06:36:03;;;;;;;;;;;;;;;5.77;100.00;99106.75;4994518;28;19924;-70
2024/01/05 06:39:07;;;;;;;;;;;;;;;5.83;100.00;99101.22;4995785;28;19944;-71
2024/01/05 06:42:10;;;;;;;;;;;;;;;5.58;100.00;99106.09;4995612;28;19929;-71
2024/01/05 06:45:12;;;;;;;;;;;;;;;5.55;100.00;99106.25;4995506;28;19925;-71
2024/01/05 06:48:22;;;;;;;;;;;;;;;5.49;100.00;99104.84;4995471;28;20064;-71
2024/01/05 06:51:29;;;;;;;;;;;;;;;5.61;100.00;99116.28;4994477;28;19980;-70
2024/01/05 06:54:34;;;;;;;;;;;;;;;5.83;100.00;99105.59;4994528;28;20408;-71
2024/01/05 06:57:41;;;;;;;;;;;;;;;5.76;100.00;99115.47;4995081;28;20484;-71
2024/01/05 07:00:45;;;;;;;;;;;;;;;5.70;100.00;99110.59;4995267;28;19929;-71
2024/01/05 07:03:51;;;;;;;;;;;;;;;5.87;100.00;99106.25;4988215;28;20060;-70
2024/01/05 07:06:54;;;;;;;;;;;;;;;5.82;100.00;99107.34;4994459;28;19979;-70
2024/01/05 07:09:57;;;;;;;;;;;;;;;5.93;100.00;99103.34;4994530;28;19924;-70
2024/01/05 07:13:00;;;;;;;;;;;;;;;5.90;100.00;99103.47;4994141;28;19924;-70
2024/01/05 07:16:03;;;;;;;;;;;;;;;5.90;100.00;99093.94;4995130;28;20041;-71
2024/01/05 07:19:07;;;;;;;;;;;;;;;5.94;100.00;99086.88;4994257;28;19924;-71
2024/01/05 07:22:10;;;;;;;;;;;;;;;5.85;100.00;99093.38;4982288;28;19929;-71
2024/01/05 07:25:12;;;;;;;;;;;;;;;5.95;100.00;99089.38;4993926;28;19980;-71
2024/01/05 07:28:15;;;;;;;;;;;;;;;5.97;100.00;99097.09;4992878;28;19953;-70
2024/01/05 07:31:23;;;;;;;;;;;;;;;5.90;100.00;99095.69;4992958;28;20024;-70
2024/01/05 07:34:27;;;;;;;;;;;;;;;5.97;100.00;99094.47;4993430;28;19925;-71
2024/01/05 07:37:30;;;;;;;;;;;;;;;6.05;100.00;99085.31;4993213;28;19924;-72
2024/01/05 07:40:33;;;;;;;;;;;;;;;6.12;100.00;99090.16;4993067;28;19929;-72
2024/01/05 07:43:36;;;;;;;;;;;;;;;6.26;100.00;99101.44;4992622;28;19971;-72
2024/01/05 07:46:42;;;;;;;;;;;;;;;6.18;100.00;99092.41;4992848;28;19924;-72
2024/01/05 07:49:45;;;;;;;;;;;;;;;6.27;100.00;99092.72;4992743;28;20399;-72
2024/01/05 07:52:48;;;;;;;;;;;;;;;6.26;100.00;99091.06;4993107;28;19925;-72
2024/01/05 07:55:51;;;;;;;;;;;;;;;6.13;100.00;99092.69;4992812;28;19980;-72
2024/01/05 07:58:54;;;;;;;;;;;;;;;6.14;100.00;99094.34;4991531;28;19925;-72
2024/01/05 08:01:57;;;;;;;;;;;;;;;6.21;100.00;99080.09;4992836;28;19929;-72
2024/01/05 08:05:00;;;;;;;;;;;;;;;6.23;100.00;99090.41;4993111;28;19924;-77
2024/01/05 08:08:03;;;;;;;;;;;;;;;6.21;100.00;99085.28;4992538;28;20024;-73
2024/01/05 08:11:06;;;;;;;;;;;;;;;6.24;100.00;99092.91;4992670;28;19972;-72
2024/01/05 08:14:09;;;;;;;;;;;;;;;6.24;100.00;99090.31;4993153;28;20340;-71
2024/01/05 08:17:12;;;;;;;;;;;;;;;6.19;100.00;99097.53;4992670;28;20385;-72
2024/01/05 08:20:16;;;;;;;;;;;;;;;6.28;100.00;99093.56;4992812;28;19928;-72
2024/01/05 08:23:19;;;;;;;;;;;;;;;6.43;100.00;99089.25;4990067;28;19972;-74
2024/01/05 08:26:23;;;;;;;;;;;;;;;6.41;100.00;99091.09;4990889;28;20056;-72
2024/01/05 08:29:26;;;;;;;;;;;;;;;6.47;99.69;99086.38;4991936;28;19928;-72
2024/01/05 08:32:29;;;;;;;;;;;;;;;6.45;100.00;99085.66;4991848;28;20383;-73
2024/01/05 08:35:33;;;;;;;;;;;;;;;6.62;100.00;99074.25;4980369;28;20281;-72
2024/01/05 08:38:35;;;;;;;;;;;;;;;6.73;100.00;99079.66;4992560;28;19924;-73
2024/01/05 08:41:42;;;;;;;;;;;;;;;6.84;100.00;99070.38;4992502;28;19956;-72
2024/01/05 08:44:45;;;;;;;;;;;;;;;7.05;99.66;99071.69;4990282;28;20540;-73
2024/01/05 08:47:48;;;;;;;;;;;;;;;6.97;97.92;99076.50;5001123;28;20010;-71
2024/01/05 08:50:52;;;;;;;;;;;;;;;7.14;96.15;99059.88;4988617;28;20427;-69
2024/01/05 08:54:01;;;;;;;;;;;;;;;7.09;98.81;99057.59;4972241;28;19973;-70
2024/01/05 08:57:07;;;;;;;;;;;;;;;7.09;98.55;99075.78;4971110;28;19981;-69
2024/01/05 09:00:11;;;;;;;;;;;;;;;7.22;94.05;99078.47;4982245;28;19945;-70
2024/01/05 09:03:20;;;;;;;;;;;;;;;7.41;92.76;99083.34;4993662;28;20380;-69
2024/01/05 09:06:24;;;;;;;;;;;;;;;7.39;95.14;99074.81;4991745;28;20345;-68
2024/01/05 09:09:27;;;;;;;;;;;;;;;7.47;95.43;99082.97;4971604;28;19925;-69
2024/01/05 09:12:31;;;;;;;;;;;;;;;7.55;95.38;99080.72;4960343;28;19981;-69
2024/01/05 09:15:35;;;;;;;;;;;;;;;7.50;93.75;99074.13;4976725;28;19925;-68
2024/01/05 09:18:38;;;;;;;;;;;;;;;7.61;94.49;99069.09;4990360;28;19929;-69
2024/01/05 09:21:41;;;;;;;;;;;;;;;7.62;92.03;99086.38;4981646;28;20106;-68
2024/01/05 09:24:44;;;;;;;;;;;;;;;7.79;93.32;99087.91;4993424;28;20943;-69
2024/01/05 09:27:48;;;;;;;;;;;;;;;7.79;92.82;99093.13;4994850;28;19964;-69
2024/01/05 09:30:52;;;;;;;;;;;;;;;7.81;91.67;99106.84;4992311;28;20012;-68
2024/01/05 09:33:56;;;;;;;;;;;;;;;7.93;90.04;99109.50;4993307;28;19999;-69
2024/01/05 09:36:58;;;;;;;;;;;;;;;8.00;89.95;99104.75;4976154;28;19992;-70
2024/01/05 09:40:30;;;;;;;;;;;;;;;8.05;89.48;99107.91;4966655;28;19981;-70
2024/01/05 09:44:00;;;;;;;;;;;;;;;7.96;89.42;99105.88;4975512;28;20032;-71
2024/01/05 09:47:24;;;;;;;;;;;;;;;8.00;96.79;99106.50;4966370;28;19941;-70
2024/01/05 09:50:55;;;;;;;;;;;;;;;8.06;93.31;99106.94;4966449;28;19925;-70
2024/01/05 09:54:18;;;;;;;;;;;;;;;8.16;94.95;99113.22;4966295;28;19973;-70
2024/01/05 09:57:44;;;;;;;;;;;;;;;8.20;97.41;99121.69;5005218;28;19939;-70
2024/01/05 10:01:11;;;;;;;;;;;;;;;8.20;95.40;99119.09;4986916;28;19929;-70
2024/01/05 10:04:34;;;;;;;;;;;;;;;8.26;95.22;99131.69;4989288;28;20340;-71
2024/01/05 10:07:57;;;;;;;;;;;;;;;8.29;94.97;99118.47;4986646;28;20003;-70
2024/01/05 10:11:30;;;;;;;;;;;;;;;8.28;95.78;99122.03;4986655;28;19960;-69
2024/01/05 10:15:01;;;;;;;;;;;;;;;8.35;96.96;99125.88;4987280;28;20289;-69
2024/01/05 10:18:24;;;;;;;;;;;;;;;8.24;94.44;99119.72;4988255;28;20341;-69
2024/01/05 10:21:51;;;;;;;;;;;;;;;8.38;95.51;99133.53;4987422;28;19933;-71
2024/01/05 10:25:21;;;;;;;;;;;;;;;8.43;95.68;99130.66;4984996;28;19928;-71
2024/01/05 10:28:44;;;;;;;;;;;;;;;8.32;90.07;99123.47;4981503;28;19940;-69
2024/01/05 10:32:19;;;;;;;;;;;;;;;8.42;91.78;99133.34;4982443;28;19925;-72
2024/01/05 10:35:43;;;;;;;;;;;;;;;8.40;95.91;99128.25;4983243;28;20037;-71
2024/01/05 10:39:08;;;;;;;;;;;;;;;8.32;89.97;99130.47;4976015;28;19944;-70
2024/01/05 10:42:34;;;;;;;;;;;;;;;8.41;87.56;99132.50;4982818;28;19968;-70
2024/01/05 10:45:59;;;;;;;;;;;;;;;8.47;86.53;99136.47;4973864;28;19976;-70
2024/01/05 10:49:23;;;;;;;;;;;;;;;8.58;89.46;99132.25;4984978;28;19955;-70
2024/01/05 10:52:47;;;;;;;;;;;;;;;8.57;90.46;99125.34;4988472;28;19930;-69
2024/01/05 10:56:12;;;;;;;;;;;;;;;8.60;90.09;99130.34;4976003;28;19929;-70
2024/01/05 10:59:36;;;;;;;;;;;;;;;8.60;93.25;99126.91;4965033;28;19928;-70
2024/01/05 11:03:11;;;;;;;;;;;;;;;8.49;91.85;99125.03;4964790;28;19948;-69
2024/01/05 11:19:43;;;;;;;10.52;3.80;;;;;;;8.39;89.23;99129.16;5105763;27;20446;-67
2024/01/05 11:23:08;;;;;;;6.05;3.00;;;;;;;8.51;85.96;99125.75;5088378;28;20511;-69
2024/01/05 11:26:42;;;;;;;7.05;2.40;;;;;;;8.53;83.05;99121.28;5102552;28;20098;-68
2024/01/05 11:30:13;;;;;;;8.38;2.15;;;;;;;8.60;82.52;99121.72;5086238;28;20059;-69
2024/01/05 11:33:49;;;;;;;7.65;3.70;;;;;;;8.57;85.99;99138.38;5113480;27;20125;-69
2024/01/05 11:37:31;;;;;;;7.10;4.15;;;;;;;8.80;84.84;99139.44;5102311;28;20034;-68
2024/01/05 11:40:54;;;;;;;5.65;2.22;;;;;;;8.84;77.44;99137.50;5111313;28;20412;-70
2024/01/05 11:44:38;;;;;;;2.30;0.60;;;;;;;8.84;73.14;99116.63;5107953;28;20093;-68
2024/01/05 11:48:01;;;;;;;2.85;0.70;;;;;;;8.71;72.63;99119.22;5092161;28;20082;-69
2024/01/05 11:51:26;;;;;;;10.05;1.80;;;;;;;8.67;71.45;99111.72;5108513;28;20088;-68
2024/01/05 11:55:08;;;;;;;12.82;1.05;;;;;;;8.67;69.21;99109.09;5101341;28;20097;-70
2024/01/05 11:58:40;;;;;;;15.00;1.15;;;;;;;8.75;69.10;99119.84;5112041;28;20043;-67
2024/01/05 12:02:08;;;;;;;2.95;0.70;;;;;;;8.64;66.91;99107.53;5095956;28;20422;-68
2024/01/05 12:05:31;;;;;;;4.07;0.75;;;;;;;8.79;68.27;99105.69;5094163;28;20173;-67
2024/01/05 12:08:55;;;;;;;4.68;0.90;;;;;;;8.75;68.45;99099.00;5106566;28;20043;-67
2024/01/05 12:12:19;;;;;;;4.07;0.68;;;;;;;8.72;66.23;99099.22;5087373;28;20059;-69
2024/01/05 12:15:51;;;;;;;2.45;0.35;;;;;;;8.79;67.97;99090.03;5100404;28;20063;-68
2024/01/05 12:19:21;;;;;;;5.43;0.85;;;;;;;8.85;68.34;99094.84;5094684;28;20047;-69
2024/01/05 12:22:44;;;;;;;3.40;1.20;;;;;;;8.88;69.48;99091.19;5094257;28;20091;-69
2024/01/05 12:26:10;;;;;;;1.90;0.47;;;;;;;8.77;66.98;99091.91;5091701;28;20066;-69
2024/01/05 12:29:34;;;;;;;3.72;0.50;;;;;;;9.01;66.01;99079.81;5080508;28;20642;-69
2024/01/05 12:32:57;;;;;;;1.75;0.55;;;;;;;9.10;66.01;99078.34;5089920;28;20108;-68
2024/01/05 12:36:28;;;;;;;2.72;0.70;;;;;;;9.21;65.50;99080.22;5096146;28;20071;-68
2024/01/05 12:39:51;;;;;;;2.78;0.90;;;;;;;9.21;66.52;99075.81;5090089;28;20089;-68
2024/01/05 12:43:16;;;;;;;7.23;3.23;;;;;;;9.14;66.41;99079.81;5091348;28;20126;-68
2024/01/05 12:46:43;;;;;;;3.65;1.20;;;;;;;9.13;67.03;99080.75;5088388;28;20043;-69
2024/01/05 12:50:22;;;;;;;4.68;1.40;;;;;;;9.02;66.75;99083.25;5091302;28;20499;-68
2024/01/05 12:53:50;;;;;;;3.35;1.20;;;;;;;8.95;65.19;99085.44;5092373;28;20047;-68
2024/01/05 12:57:21;;;;;;;3.95;0.88;;;;;;;8.93;64.53;99086.50;5080488;28;20124;-68
2024/01/05 13:00:46;;;;;;;12.50;7.50;;;;;;;8.91;65.44;99088.38;5090405;28;20496;-68
2024/01/05 13:04:15;;;;;;;6.60;3.95;;;;;;;9.05;65.16;99086.47;5082782;28;20128;-68
2024/01/05 13:07:39;;;;;;;12.38;6.72;;;;;;;9.14;65.05;99097.22;5092043;28;20440;-67
2024/01/05 13:11:03;;;;;;;5.97;2.20;;;;;;;9.51;65.11;99101.53;5089973;28;20101;-68
2024/01/05 13:14:27;;;;;;;4.13;1.20;;;;;;;9.49;63.61;99110.41;5090382;28;20039;-68
2024/01/05 13:17:52;;;;;;;5.40;1.38;;;;;;;9.23;59.57;99114.84;5090649;28;20418;-68
2024/01/05 13:21:15;;;;;;;4.22;1.73;;;;;;;9.14;59.61;99110.25;5091290;28;20455;-67
2024/01/05 13:24:39;;;;;;;5.07;1.70;;;;;;;9.06;60.02;99115.97;5088714;28;20163;-67
2024/01/05 13:28:03;;;;;;;4.63;1.08;;;;;;;8.99;59.88;99123.41;5088565;28;20507;-68
2024/01/05 13:31:26;;;;;;;3.15;0.82;;;;;;;9.02;59.52;99132.78;5078650;28;20047;-68
2024/01/05 13:34:49;;;;;;;2.53;0.60;;;;;;;9.18;57.68;99127.34;5088593;28;20070;-69
2024/01/05 13:38:12;;;;;;;2.10;0.40;;;;;;;9.30;57.29;99143.00;5086667;28;20101;-69
2024/01/05 13:41:36;;;;;;;8.68;3.40;;;;;;;9.25;57.02;99137.28;5090731;28;20051;-69
2024/01/05 13:45:04;;;;;;;35.33;19.58;;;;;;;9.17;56.70;99131.75;5093173;28;20086;-68
2024/01/05 13:48:28;;;;;;;3.67;1.10;;;;;;;9.31;57.86;99123.78;5088736;28;20039;-70
2024/01/05 13:51:51;;;;;;;5.20;1.70;;;;;;;9.47;58.73;99134.00;5088939;28;20093;-71
2024/01/05 13:55:14;;;;;;;7.10;2.63;;;;;;;9.55;58.23;99129.09;5082754;28;20051;-70
2024/01/05 13:58:37;;;;;;;4.95;1.52;;;;;;;9.72;58.13;99124.44;5089648;28;20108;-71
2024/01/05 14:02:02;;;;;;;3.05;1.20;;;;;;;9.69;56.91;99137.72;5088350;28;20051;-70
2024/01/05 14:05:26;;;;;;;3.53;1.10;;;;;;;9.66;57.48;99133.53;5086450;28;20307;-70
2024/01/05 14:08:50;;;;;;;5.18;1.30;;;;;;;9.52;57.74;99126.69;5092837;28;20035;-73
2024/01/05 14:12:13;;;;;;;4.32;0.82;;;;;;;9.47;59.04;99130.56;5091988;28;20047;-70
2024/01/05 14:15:36;;;;;;;2.00;0.75;;;;;;;9.49;57.90;99133.91;5087625;28;20461;-70
2024/01/05 14:18:59;;;;;;;4.07;1.85;;;;;;;9.74;57.61;99130.41;5083241;28;20048;-68
2024/01/05 14:22:25;;;;;;;;;;;;;;;9.45;58.07;99146.34;5089610;28;20196;-69
2024/01/05 14:25:48;;;;;;;3.90;2.17;;;;;;;9.10;56.88;99148.75;5096314;28;19959;-69
2024/01/05 14:29:12;;;;;;;25.30;9.35;;;;;;;8.92;56.54;99150.00;5085376;28;20086;-66
2024/01/05 14:32:36;;;;;;;3.95;1.60;;;;;;;8.86;57.34;99151.22;5085990;28;20048;-68
2024/01/05 14:36:03;;;;;;;6.80;2.38;;;;;;;8.71;56.89;99165.28;5088847;28;20097;-69
2024/01/05 14:39:28;;;;;;;3.17;0.63;;;;;;;8.74;56.68;99152.03;5087986;28;20091;-68
2024/01/05 14:42:51;;;;;;;2.40;0.75;;;;;;;8.75;56.72;99148.53;5092994;28;20508;-69
2024/01/05 14:46:15;;;;;;;4.90;0.70;;;;;;;8.75;55.51;99143.31;5087098;28;20562;-68
2024/01/05 14:49:39;;;;;;;3.00;0.80;;;;;;;8.68;56.08;99160.28;5089533;28;20113;-67
2024/01/05 14:53:02;;;;;;;;;;;;;;;8.64;56.15;99137.97;5094380;28;20081;-67
2024/01/05 14:56:26;;;;;;;5.07;1.60;;;;;;;8.69;56.50;99139.34;5090633;28;20296;-68
2024/01/05 14:59:49;;;;;;;5.78;1.30;;;;;;;8.56;56.54;99147.13;5087450;28;20135;-66
2024/01/05 15:03:12;;;;;;;4.07;1.30;;;;;;;8.50;56.71;99151.91;5088165;28;20090;-66
2024/01/05 15:06:35;;;;;;;6.03;1.35;;;;;;;8.46;56.87;99151.28;5086477;28;20054;-66
2024/01/05 15:10:01;;;;;;;3.22;1.10;;;;;;;8.41;56.87;99152.50;5089229;28;20541;-67
2024/01/05 15:13:25;;;;;;;4.03;0.85;;;;;;;8.29;56.87;99148.91;5082718;28;20038;-67
2024/01/05 15:16:50;;;;;;;6.93;1.75;;;;;;;8.22;57.83;99153.66;5080790;28;20051;-67
2024/01/05 15:20:41;;;;;;;7.97;3.03;;;;;;;8.19;57.61;99147.81;5090485;28;20088;-67
2024/01/05 15:24:07;;;;;;;6.65;3.45;;;;;;;8.20;58.71;99158.16;5072008;28;20043;-68
2024/01/05 15:27:30;;;;;;;6.38;2.42;;;;;;;8.16;58.61;99154.06;5088737;28;20043;-68
2024/01/05 15:30:54;;;;;;;5.50;1.35;;;;;;;8.15;58.15;99157.59;5080185;28;20054;-67
2024/01/05 15:34:21;;;;;;;6.88;2.63;;;;;;;8.13;58.18;99157.69;5080833;28;20050;-67
2024/01/05 15:37:45;;;;;;;6.05;1.65;;;;;;;8.13;58.27;99164.66;5081662;28;20114;-68
2024/01/05 15:41:08;;;;;;;;;;;;;;;8.17;58.73;99168.75;5090858;28;20178;-68
2024/01/05 15:44:31;;;;;;;4.22;1.13;;;;;;;8.14;58.90;99175.00;5089165;28;20478;-68
2024/01/05 15:47:55;;;;;;;2.95;1.02;;;;;;;8.18;58.89;99173.03;5091474;28;20046;-69
2024/01/05 15:55:57;;;;;;;4.28;0.70;;;;;;;8.12;58.59;99176.84;5092777;28;20039;-67
2024/01/05 15:59:29;;;;;;;2.78;0.93;;;;;;;8.09;59.47;99177.03;5106013;28;20112;-67
2024/01/05 16:02:53;;;;;;;5.80;1.63;;;;;;;8.06;59.77;99179.84;5112602;28;20054;-68
2024/01/05 16:06:19;;;;;;;6.18;2.90;;;;;;;8.03;59.32;99179.19;5086370;28;20105;-67
2024/01/05 16:09:43;;;;;;;8.20;4.15;;;;;;;8.00;59.64;99168.97;5093260;28;20050;-67
2024/01/05 16:13:06;;;;;;;6.72;1.40;;;;;;;7.93;59.56;99173.75;5086962;28;20051;-67
2024/01/05 16:16:29;;;;;;;;;;;;;;;7.91;60.20;99150.44;5074780;28;20115;-68
2024/01/05 16:19:52;;;;;;;11.02;5.07;;;;;;;7.90;60.89;99155.72;5093167;28;20467;-67
2024/01/05 16:23:15;;;;;;;3.97;1.50;;;;;;;7.81;60.75;99161.50;5094564;28;20155;-68
2024/01/05 16:26:38;;;;;;;5.20;1.70;;;;;;;7.73;61.17;99159.38;5093083;28;20047;-68
2024/01/05 16:30:01;;;;;;;4.73;1.73;;;;;;;7.73;61.12;99161.16;5092611;28;20050;-68
2024/01/05 16:33:29;;;;;;;7.82;2.03;;;;;;;7.64;61.25;99150.38;5083475;28;20055;-67
2024/01/05 16:36:56;;;;;;;4.78;1.60;;;;;;;7.64;60.72;99150.38;5085207;28;20401;-68
2024/01/05 16:40:20;;;;;;;5.38;2.03;;;;;;;7.63;61.52;99164.31;5085069;28;20476;-66
2024/01/05 16:43:46;;;;;;;5.72;1.77;;;;;;;7.60;62.18;99161.09;5090341;28;20569;-72